createdAt,value
2018-09-29T00:01:53.775Z,14.77
2018-09-29T00:04:22.636Z,10.00
2018-09-29T00:06:51.265Z,8.87
2018-09-29T00:09:19.782Z,8.63
2018-09-29T00:11:48.517Z,12.73
2018-09-29T00:14:17.238Z,12.27
2018-09-29T00:16:45.935Z,8.43
2018-09-29T00:19:14.569Z,9.20
2018-09-29T00:21:43.348Z,11.23
2018-09-29T00:24:12.245Z,10.30
2018-09-29T00:26:40.879Z,11.37
2018-09-29T00:29:09.636Z,14.13
2018-09-29T00:31:38.515Z,13.50
2018-09-29T00:34:07.405Z,13.23
2018-09-29T00:36:36.270Z,10.17
2018-09-29T00:39:05.820Z,7.70
2018-09-29T00:41:34.551Z,10.23
2018-09-29T00:44:03.453Z,9.97
2018-09-29T00:46:32.078Z,8.20
2018-09-29T00:49:00.822Z,13.20
2018-09-29T00:51:29.754Z,10.13
2018-09-29T00:53:58.613Z,11.20
2018-09-29T00:56:27.470Z,9.23
2018-09-29T00:58:56.126Z,12.13
2018-09-29T01:01:24.913Z,10.37
2018-09-29T01:03:53.841Z,10.67
2018-09-29T01:06:22.701Z,10.10
2018-09-29T01:08:51.350Z,11.90
2018-09-29T01:11:19.874Z,9.67
2018-09-29T01:13:48.622Z,10.27
2018-09-29T01:16:17.254Z,11.67
2018-09-29T01:18:46.149Z,11.33
2018-09-29T01:21:15.092Z,11.70
2018-09-29T01:23:43.961Z,13.13
2018-09-29T01:26:12.852Z,12.43
2018-09-29T01:28:41.493Z,10.60
2018-09-29T01:31:10.235Z,13.67
2018-09-29T01:33:39.124Z,13.43
2018-09-29T01:36:07.955Z,12.40
2018-09-29T01:38:36.577Z,13.43
2018-09-29T01:41:05.085Z,9.83
2018-09-29T01:43:33.817Z,12.17
2018-09-29T01:46:02.662Z,13.67
2018-09-29T01:48:31.506Z,10.97
2018-09-29T01:51:00.400Z,13.43
2018-09-29T01:53:29.025Z,12.87
2018-09-29T01:55:57.762Z,11.90
2018-09-29T01:58:26.394Z,16.20
2018-09-29T02:00:55.118Z,13.23
2018-09-29T02:03:23.964Z,15.27
2018-09-29T02:05:52.849Z,15.17
2018-09-29T02:08:21.733Z,12.80
2018-09-29T02:10:50.357Z,13.97
2018-09-29T02:13:19.133Z,12.17
2018-09-29T02:15:47.950Z,12.60
2018-09-29T02:18:17.481Z,10.43
2018-09-29T02:20:46.251Z,11.97
2018-09-29T02:23:15.121Z,11.97
2018-09-29T02:25:44.037Z,11.70
2018-09-29T02:28:12.843Z,8.23
2018-09-29T02:30:41.736Z,9.13
2018-09-29T02:33:10.602Z,11.83
2018-09-29T02:35:39.471Z,9.80
2018-09-29T02:38:08.105Z,9.33
2018-09-29T02:40:36.617Z,11.20
2018-09-29T02:43:05.343Z,11.10
2018-09-29T02:45:34.171Z,12.73
2018-09-29T02:48:03.045Z,11.70
2018-09-29T02:50:31.693Z,11.30
2018-09-29T02:53:00.427Z,16.20
2018-09-29T02:55:29.080Z,8.57
2018-09-29T02:57:57.819Z,9.83
2018-09-29T03:00:26.683Z,12.87
2018-09-29T03:02:55.547Z,11.40
2018-09-29T03:05:24.416Z,9.60
2018-09-29T03:07:53.049Z,10.50
2018-09-29T03:10:21.856Z,11.87
2018-09-29T03:12:50.710Z,11.13
2018-09-29T03:15:19.622Z,11.67
2018-09-29T03:17:48.480Z,8.77
2018-09-29T03:20:17.157Z,12.17
2018-09-29T03:22:45.881Z,9.67
2018-09-29T03:25:14.754Z,13.07
2018-09-29T03:27:43.663Z,13.67
2018-09-29T03:30:12.526Z,10.70
2018-09-29T03:32:41.165Z,10.80
2018-09-29T03:35:09.914Z,10.73
2018-09-29T03:37:38.853Z,11.03
2018-09-29T03:40:08.267Z,10.33
2018-09-29T03:42:36.898Z,9.07
2018-09-29T03:45:05.732Z,10.47
2018-09-29T03:47:34.499Z,9.40
2018-09-29T03:50:03.355Z,11.97
2018-09-29T03:52:32.100Z,14.30
2018-09-29T03:55:00.834Z,11.77
2018-09-29T03:57:29.707Z,9.30
2018-09-29T03:59:58.554Z,13.13
2018-09-29T04:02:27.197Z,8.90
2018-09-29T04:04:55.977Z,15.33
2018-09-29T04:07:24.861Z,10.30
2018-09-29T04:09:53.748Z,11.03
2018-09-29T04:12:22.599Z,8.70
2018-09-29T04:14:51.511Z,9.40
2018-09-29T04:17:20.154Z,15.57
2018-09-29T04:19:48.897Z,12.30
2018-09-29T04:22:17.757Z,9.47
2018-09-29T04:24:46.636Z,12.00
2018-09-29T04:27:15.499Z,12.10
2018-09-29T04:29:44.146Z,9.67
2018-09-29T04:32:12.895Z,13.53
2018-09-29T04:34:41.734Z,9.80
2018-09-29T04:37:10.582Z,7.73
2018-09-29T04:39:39.485Z,7.40
2018-09-29T04:42:08.079Z,8.60
2018-09-29T04:44:36.577Z,10.80
2018-09-29T04:47:05.094Z,8.33
2018-09-29T04:49:33.803Z,10.10
2018-09-29T04:52:02.438Z,11.03
2018-09-29T04:54:31.174Z,12.67
2018-09-29T04:57:00.018Z,9.13
2018-09-29T04:59:28.848Z,7.03
2018-09-29T05:01:57.683Z,11.57
2018-09-29T05:04:26.298Z,10.07
2018-09-29T05:06:55.018Z,9.80
2018-09-29T05:09:23.684Z,10.33
2018-09-29T05:11:52.226Z,8.97
2018-09-29T05:14:20.932Z,8.13
2018-09-29T05:16:49.781Z,8.00
2018-09-29T05:19:18.652Z,11.23
2018-09-29T05:21:47.274Z,7.30
2018-09-29T05:24:15.983Z,9.97
2018-09-29T05:26:44.827Z,14.07
2018-09-29T05:29:13.662Z,12.73
2018-09-29T05:31:42.328Z,8.27
2018-09-29T05:34:11.145Z,9.27
2018-09-29T05:36:40.023Z,13.37
2018-09-29T05:39:09.369Z,12.77
2018-09-29T05:41:38.247Z,11.80
2018-09-29T05:44:07.102Z,10.00
2018-09-29T05:46:35.771Z,7.63
2018-09-29T05:49:04.594Z,11.73
2018-09-29T05:51:33.434Z,11.40
2018-09-29T05:54:02.174Z,9.67
2018-09-29T05:56:30.906Z,7.77
2018-09-29T05:58:59.911Z,12.43
2018-09-29T06:01:28.739Z,9.80
2018-09-29T06:03:57.378Z,10.07
2018-09-29T06:06:26.131Z,12.30
2018-09-29T06:08:55.003Z,9.40
2018-09-29T06:11:23.871Z,11.20
2018-09-29T06:13:52.514Z,9.20
2018-09-29T06:16:21.254Z,9.97
2018-09-29T06:18:50.130Z,8.83
2018-09-29T06:21:19.004Z,11.17
2018-09-29T06:23:47.641Z,7.13
2018-09-29T06:26:16.380Z,8.80
2018-09-29T06:28:45.234Z,12.03
2018-09-29T06:31:14.128Z,12.57
2018-09-29T06:33:42.994Z,14.10
2018-09-29T06:36:11.867Z,9.43
2018-09-29T06:38:40.777Z,13.23
2018-09-29T06:41:09.702Z,10.93
2018-09-29T06:43:38.317Z,12.13
2018-09-29T06:46:07.104Z,12.57
2018-09-29T06:48:35.991Z,15.30
2018-09-29T06:51:04.888Z,14.93
2018-09-29T06:53:33.801Z,15.83
2018-09-29T06:56:02.474Z,13.57
2018-09-29T06:58:31.210Z,13.73
2018-09-29T07:01:00.113Z,12.37
2018-09-29T07:03:29.547Z,17.07
2018-09-29T07:05:58.142Z,14.77
2018-09-29T07:08:26.930Z,20.00
2018-09-29T07:10:55.794Z,12.97
2018-09-29T07:13:25.839Z,13.70
2018-09-29T07:15:54.748Z,15.67
2018-09-29T07:18:23.429Z,15.73
2018-09-29T07:20:52.020Z,11.50
2018-09-29T07:23:20.564Z,9.77
2018-09-29T07:25:49.296Z,14.37
2018-09-29T07:28:18.165Z,14.13
2018-09-29T07:30:47.027Z,12.17
2018-09-29T07:33:15.928Z,14.97
2018-09-29T07:35:44.560Z,20.63
2018-09-29T07:38:13.274Z,17.57
2018-09-29T07:40:42.157Z,18.77
2018-09-29T07:43:11.055Z,14.90
2018-09-29T07:45:39.975Z,14.40
2018-09-29T07:48:08.595Z,12.87
2018-09-29T07:50:37.330Z,12.00
2018-09-29T07:53:06.220Z,11.83
2018-09-29T07:55:35.121Z,14.17
2018-09-29T07:58:03.970Z,12.77
2018-09-29T08:00:32.610Z,12.43
2018-09-29T08:03:01.127Z,18.50
2018-09-29T08:05:29.690Z,11.63
2018-09-29T08:07:58.456Z,9.07
2018-09-29T08:10:27.315Z,16.37
2018-09-29T08:12:56.143Z,21.07
2018-09-29T08:15:25.094Z,12.83
2018-09-29T08:17:53.978Z,15.27
2018-09-29T08:20:22.644Z,11.03
2018-09-29T08:22:51.358Z,12.23
2018-09-29T08:25:20.248Z,13.03
2018-09-29T08:27:49.125Z,14.27
2018-09-29T08:30:17.812Z,16.97
2018-09-29T08:32:46.541Z,16.80
2018-09-29T08:35:15.410Z,12.70
2018-09-29T08:37:44.312Z,13.87
2018-09-29T08:40:12.914Z,16.73
2018-09-29T08:42:41.723Z,14.27
2018-09-29T08:45:10.581Z,14.43
2018-09-29T08:47:39.434Z,14.30
2018-09-29T08:50:08.058Z,15.33
2018-09-29T08:52:36.799Z,16.07
2018-09-29T08:55:05.439Z,15.13
2018-09-29T08:57:34.151Z,12.37
2018-09-29T09:00:02.883Z,15.43
2018-09-29T09:02:31.612Z,12.60
2018-09-29T09:05:00.241Z,11.90
2018-09-29T09:08:32.370Z,17.87
2018-09-29T09:11:01.222Z,15.17
2018-09-29T09:13:30.125Z,10.03
2018-09-29T09:15:59.017Z,12.23
2018-09-29T09:18:27.642Z,15.13
2018-09-29T09:20:56.213Z,11.97
2018-09-29T09:23:25.452Z,13.20
2018-09-29T09:25:54.178Z,9.50
2018-09-29T09:28:22.814Z,13.33
2018-09-29T09:30:51.543Z,14.37
2018-09-29T09:33:20.244Z,12.80
2018-09-29T09:35:48.974Z,13.97
2018-09-29T09:38:17.656Z,11.07
2018-09-29T09:40:46.181Z,10.10
2018-09-29T09:43:14.724Z,13.70
2018-09-29T09:45:43.302Z,17.10
2018-09-29T09:48:12.085Z,12.57
2018-09-29T09:50:40.943Z,7.73
2018-09-29T09:53:09.790Z,9.60
2018-09-29T09:55:38.517Z,8.17
2018-09-29T09:58:07.317Z,8.80
2018-09-29T10:00:41.682Z,8.50
2018-09-29T10:03:43.130Z,9.90
2018-09-29T10:06:11.996Z,7.13
2018-09-29T10:08:40.842Z,11.00
2018-09-29T10:11:09.686Z,8.77
2018-09-29T10:13:38.360Z,8.70
2018-09-29T10:16:07.082Z,11.50
2018-09-29T10:18:35.756Z,7.47
2018-09-29T10:21:04.550Z,9.47
2018-09-29T10:23:33.228Z,8.63
2018-09-29T10:26:01.948Z,4.80
2018-09-29T10:28:30.795Z,5.40
2018-09-29T10:30:59.472Z,7.60
2018-09-29T10:33:28.017Z,8.80
2018-09-29T10:35:56.568Z,8.47
2018-09-29T10:38:25.339Z,8.30
2018-09-29T10:40:54.160Z,8.97
2018-09-29T10:43:23.102Z,10.67
2018-09-29T10:45:51.966Z,13.60
2018-09-29T10:48:20.673Z,11.43
2018-09-29T10:50:49.424Z,7.40
2018-09-29T10:53:18.059Z,9.33
2018-09-29T10:55:46.886Z,6.47
2018-09-29T10:58:15.739Z,6.00
2018-09-29T11:00:44.373Z,8.50
2018-09-29T11:03:13.114Z,6.53
2018-09-29T11:05:41.999Z,6.03
2018-09-29T11:08:10.888Z,8.03
2018-09-29T11:10:39.772Z,8.70
2018-09-29T11:13:08.397Z,9.40
2018-09-29T11:15:37.530Z,7.03
2018-09-29T11:18:06.509Z,10.17
2018-09-29T11:20:35.360Z,5.57
2018-09-29T11:23:04.051Z,7.57
2018-09-29T11:25:32.607Z,6.57
2018-09-29T11:28:01.310Z,5.47
2018-09-29T11:30:30.146Z,6.37
2018-09-29T11:32:59.069Z,7.33
2018-09-29T11:35:27.946Z,4.50
2018-09-29T11:37:56.641Z,8.87
2018-09-29T11:40:25.433Z,7.47
2018-09-29T11:42:54.018Z,7.50
2018-09-29T11:45:22.818Z,10.97
2018-09-29T11:47:51.682Z,6.70
2018-09-29T11:50:20.393Z,6.50
2018-09-29T11:52:49.094Z,7.17
2018-09-29T11:55:17.729Z,6.33
2018-09-29T11:57:46.481Z,7.30
2018-09-29T12:00:15.567Z,6.30
2018-09-29T12:02:45.322Z,6.53
2018-09-29T12:05:14.197Z,6.50
2018-09-29T12:07:43.440Z,7.27
2018-09-29T12:10:12.243Z,4.43
2018-09-29T12:12:41.152Z,4.13
2018-09-29T12:15:10.065Z,13.03
2018-09-29T12:17:38.798Z,10.73
2018-09-29T12:20:07.551Z,6.63
2018-09-29T12:22:36.431Z,7.30
2018-09-29T12:25:05.319Z,6.13
2018-09-29T12:27:34.254Z,5.10
2018-09-29T12:30:03.171Z,9.43
2018-09-29T12:32:32.852Z,7.93
2018-09-29T12:35:01.540Z,6.77
2018-09-29T12:37:30.398Z,7.87
2018-09-29T12:39:59.902Z,5.17
2018-09-29T12:42:28.804Z,6.87
2018-09-29T12:44:57.746Z,6.53
2018-09-29T12:47:26.541Z,7.67
2018-09-29T12:49:55.411Z,6.40
2018-09-29T12:52:24.329Z,6.53
2018-09-29T12:54:53.296Z,8.53
2018-09-29T12:57:22.380Z,10.20
2018-09-29T12:59:51.494Z,5.40
2018-09-29T13:02:20.403Z,8.00
2018-09-29T13:04:49.282Z,6.37
2018-09-29T13:07:18.177Z,6.97
2018-09-29T13:09:47.076Z,8.20
2018-09-29T13:12:15.901Z,6.07
2018-09-29T13:14:44.783Z,7.27
2018-09-29T13:17:13.643Z,8.00
2018-09-29T13:19:42.506Z,7.30
2018-09-29T13:22:11.408Z,7.77
2018-09-29T13:24:40.302Z,5.83
2018-09-29T13:27:08.952Z,7.37
2018-09-29T13:29:37.801Z,7.47
2018-09-29T13:32:06.690Z,4.93
2018-09-29T13:34:35.586Z,7.10
2018-09-29T13:37:04.247Z,8.40
2018-09-29T13:39:32.942Z,6.60
2018-09-29T13:42:01.831Z,7.43
2018-09-29T13:44:30.682Z,8.83
2018-09-29T13:46:59.526Z,5.60
2018-09-29T13:49:28.430Z,6.63
2018-09-29T13:51:57.302Z,7.73
2018-09-29T13:54:26.146Z,6.27
2018-09-29T13:56:54.998Z,5.87
2018-09-29T13:59:23.843Z,5.93
2018-09-29T14:01:52.729Z,5.53
2018-09-29T14:04:21.605Z,6.20
2018-09-29T14:06:50.449Z,4.33
2018-09-29T14:09:19.286Z,4.00
2018-09-29T14:11:48.136Z,5.03
2018-09-29T14:14:16.983Z,6.30
2018-09-29T14:16:45.834Z,6.33
2018-09-29T14:19:14.731Z,6.30
2018-09-29T14:21:43.607Z,5.73
2018-09-29T14:24:12.435Z,5.47
2018-09-29T14:26:41.347Z,7.13
2018-09-29T14:29:10.284Z,5.10
2018-09-29T14:31:39.131Z,8.63
2018-09-29T14:34:08.002Z,8.60
2018-09-29T14:36:36.916Z,6.50
2018-09-29T14:39:07.851Z,6.27
2018-09-29T14:41:37.785Z,5.37
2018-09-29T14:44:06.914Z,9.53
2018-09-29T14:46:35.926Z,5.20
2018-09-29T14:49:04.756Z,7.03
2018-09-29T14:51:33.625Z,5.90
2018-09-29T14:54:02.487Z,6.57
2018-09-29T14:56:31.362Z,6.67
2018-09-29T14:59:00.238Z,7.20
2018-09-29T15:01:29.106Z,5.37
2018-09-29T15:03:58.035Z,5.60
2018-09-29T15:06:26.923Z,6.37
2018-09-29T15:08:55.853Z,5.37
2018-09-29T15:11:24.710Z,8.80
2018-09-29T15:13:53.591Z,7.53
2018-09-29T15:16:22.465Z,6.50
2018-09-29T15:18:51.381Z,9.17
2018-09-29T15:21:20.282Z,7.07
2018-09-29T15:23:49.155Z,6.17
2018-09-29T15:26:18.061Z,5.47
2018-09-29T15:28:47.039Z,8.63
2018-09-29T15:31:15.910Z,6.50
2018-09-29T15:33:44.648Z,5.30
2018-09-29T15:36:13.403Z,8.90
2018-09-29T15:38:42.266Z,9.27
2018-09-29T15:41:11.227Z,5.70
2018-09-29T15:43:40.099Z,9.67
2018-09-29T15:46:09.019Z,7.50
2018-09-29T15:48:37.943Z,8.20
2018-09-29T15:51:06.752Z,6.90
2018-09-29T15:53:35.578Z,7.27
2018-09-29T15:56:04.317Z,9.70
2018-09-29T15:58:33.229Z,9.87
2018-09-29T16:01:02.087Z,6.77
2018-09-29T16:03:30.991Z,9.57
2018-09-29T16:05:59.634Z,6.27
2018-09-29T16:08:28.386Z,4.53
2018-09-29T16:10:57.251Z,5.43
2018-09-29T16:13:26.193Z,8.07
2018-09-29T16:15:55.069Z,6.43
2018-09-29T16:18:23.934Z,7.27
2018-09-29T16:20:52.854Z,7.60
2018-09-29T16:23:21.490Z,8.30
2018-09-29T16:25:50.231Z,5.93
2018-09-29T16:28:18.908Z,9.60
2018-09-29T16:30:47.633Z,8.20
2018-09-29T16:33:16.513Z,6.00
2018-09-29T16:35:45.389Z,7.03
2018-09-29T16:38:14.076Z,4.30
2018-09-29T16:40:43.092Z,7.50
2018-09-29T16:43:11.922Z,7.43
2018-09-29T16:45:40.798Z,6.90
2018-09-29T16:48:09.662Z,4.87
2018-09-29T16:50:39.089Z,7.90
2018-09-29T16:53:07.967Z,6.40
2018-09-29T16:55:36.902Z,7.80
2018-09-29T16:58:05.777Z,8.07
2018-09-29T17:00:34.832Z,6.07
2018-09-29T17:03:03.466Z,7.47
2018-09-29T17:05:31.970Z,11.07
2018-09-29T17:08:00.720Z,7.80
2018-09-29T17:10:29.390Z,7.83
2018-09-29T17:12:58.269Z,7.73
2018-09-29T17:15:27.552Z,8.47
2018-09-29T17:17:56.295Z,9.60
2018-09-29T17:20:25.170Z,7.50
2018-09-29T17:22:53.861Z,12.80
2018-09-29T17:25:22.602Z,8.53
2018-09-29T17:27:51.478Z,9.70
2018-09-29T17:30:20.478Z,11.17
2018-09-29T17:32:49.117Z,10.53
2018-09-29T17:35:17.888Z,10.13
2018-09-29T17:37:46.538Z,11.10
2018-09-29T17:40:15.038Z,11.23
2018-09-29T17:42:43.938Z,8.67
2018-09-29T17:45:12.830Z,11.13
2018-09-29T17:47:41.492Z,10.97
2018-09-29T17:50:10.574Z,11.67
2018-09-29T17:52:39.230Z,13.53
2018-09-29T17:55:08.005Z,14.27
2018-09-29T17:57:36.641Z,12.33
2018-09-29T18:00:05.410Z,11.83
2018-09-29T18:02:34.316Z,12.27
2018-09-29T18:05:03.104Z,11.20
2018-09-29T18:07:31.615Z,11.33
2018-09-29T18:10:00.375Z,10.13
2018-09-29T18:12:29.267Z,11.97
2018-09-29T18:14:58.138Z,8.87
2018-09-29T18:17:27.810Z,10.13
2018-09-29T18:19:56.450Z,7.13
2018-09-29T18:22:25.198Z,10.57
2018-09-29T18:24:54.461Z,8.37
2018-09-29T18:27:23.202Z,9.53
2018-09-29T18:29:51.839Z,7.87
2018-09-29T18:32:20.555Z,7.20
2018-09-29T18:34:49.272Z,13.47
2018-09-29T18:37:17.968Z,11.60
2018-09-29T18:39:46.707Z,7.80
2018-09-29T18:42:15.558Z,9.57
2018-09-29T18:44:44.217Z,10.30
2018-09-29T18:47:12.962Z,11.33
2018-09-29T18:49:41.598Z,6.67
2018-09-29T18:52:11.202Z,6.50
2018-09-29T18:54:40.097Z,12.57
2018-09-29T18:57:08.807Z,9.97
2018-09-29T18:59:37.314Z,10.32
2018-09-29T19:02:05.860Z,12.27
2018-09-29T19:04:34.407Z,9.13
2018-09-29T19:07:02.874Z,11.37
2018-09-29T19:09:31.605Z,8.70
2018-09-29T19:12:00.452Z,9.80
2018-09-29T19:14:29.294Z,8.93
2018-09-29T19:16:58.230Z,8.23
2018-09-29T19:19:26.876Z,11.33
2018-09-29T19:21:55.645Z,10.20
2018-09-29T19:24:24.482Z,11.70
2018-09-29T19:26:53.350Z,12.17
2018-09-29T19:29:22.244Z,12.00
2018-09-29T19:31:50.922Z,10.70
2018-09-29T19:34:19.499Z,10.17
2018-09-29T19:36:48.071Z,14.60
2018-09-29T19:39:16.850Z,11.40
2018-09-29T19:41:45.802Z,7.80
2018-09-29T19:44:14.449Z,12.00
2018-09-29T19:46:43.014Z,9.50
2018-09-29T19:49:11.824Z,8.83
2018-09-29T19:51:40.668Z,13.63
2018-09-29T19:54:09.555Z,8.43
2018-09-29T19:56:38.532Z,13.17
2018-09-29T19:59:07.407Z,10.13
2018-09-29T20:01:36.104Z,11.83
2018-09-29T20:04:04.696Z,9.10
2018-09-29T20:06:33.557Z,10.67
2018-09-29T20:09:03.181Z,11.70
2018-09-29T20:11:31.938Z,9.70
2018-09-29T20:14:00.849Z,11.50
2018-09-29T20:16:29.530Z,12.23
2018-09-29T20:18:58.230Z,9.13
2018-09-29T20:21:27.074Z,10.00
2018-09-29T20:23:55.831Z,10.63
2018-09-29T20:26:24.501Z,11.57
2018-09-29T20:28:53.293Z,12.03
2018-09-29T20:31:22.245Z,11.97
2018-09-29T20:33:50.887Z,11.13
2018-09-29T20:36:19.611Z,9.43
2018-09-29T20:38:48.466Z,13.50
2018-09-29T20:41:17.361Z,13.90
2018-09-29T20:43:46.207Z,11.03
2018-09-29T20:46:14.941Z,10.03
2018-09-29T20:48:43.438Z,12.60
2018-09-29T20:51:11.993Z,12.53
2018-09-29T20:53:40.745Z,13.20
2018-09-29T20:56:09.378Z,10.93
2018-09-29T20:58:38.136Z,16.87
2018-09-29T21:01:07.002Z,11.33
2018-09-29T21:03:35.676Z,9.93
2018-09-29T21:06:05.309Z,11.10
2018-09-29T21:08:34.174Z,10.63
2018-09-29T21:11:02.845Z,13.40
2018-09-29T21:13:31.585Z,13.67
2018-09-29T21:16:00.816Z,12.60
2018-09-29T21:18:29.450Z,13.77
2018-09-29T21:20:58.183Z,12.17
2018-09-29T21:23:26.817Z,13.20
2018-09-29T21:25:55.535Z,12.37
2018-09-29T21:28:24.244Z,10.47
2018-09-29T21:30:52.942Z,15.53
2018-09-29T21:33:21.816Z,13.67
2018-09-29T21:35:50.675Z,12.87
2018-09-29T21:38:19.599Z,13.70
2018-09-29T21:40:48.454Z,11.67
2018-09-29T21:43:17.404Z,12.40
2018-09-29T21:45:46.255Z,14.13
2018-09-29T21:48:14.917Z,12.00
2018-09-29T21:50:43.715Z,18.87
2018-09-29T21:53:12.683Z,12.77
2018-09-29T21:55:41.600Z,12.83
2018-09-29T21:58:10.249Z,12.93
2018-09-29T22:00:44.631Z,16.13
2018-09-29T22:03:14.660Z,13.57
2018-09-29T22:05:43.935Z,13.63
2018-09-29T22:08:13.058Z,16.10
2018-09-29T22:10:41.733Z,15.23
2018-09-29T22:13:10.251Z,19.03
2018-09-29T22:15:38.886Z,20.03
2018-09-29T22:18:07.640Z,19.77
2018-09-29T22:20:36.503Z,17.53
2018-09-29T22:23:05.571Z,16.70
2018-09-29T22:25:34.318Z,18.53
2018-09-29T22:28:02.989Z,17.00
2018-09-29T22:30:31.748Z,14.60
2018-09-29T22:33:00.603Z,16.53
2018-09-29T22:35:29.478Z,12.70
2018-09-29T22:37:58.376Z,15.77
2018-09-29T22:40:27.082Z,14.03
2018-09-29T22:42:55.766Z,15.53
2018-09-29T22:45:24.614Z,15.83
2018-09-29T22:47:53.505Z,15.97
2018-09-29T22:50:22.379Z,17.07
2018-09-29T22:52:51.001Z,15.30
2018-09-29T22:55:19.726Z,16.00
2018-09-29T22:57:48.600Z,14.53
2018-09-29T23:00:17.484Z,12.87
2018-09-29T23:02:46.317Z,16.03
2018-09-29T23:05:15.026Z,13.47
2018-09-29T23:07:43.548Z,15.73
2018-09-29T23:10:12.059Z,17.70
2018-09-29T23:12:40.823Z,18.00
2018-09-29T23:15:09.673Z,17.13
2018-09-29T23:17:38.569Z,19.73
2018-09-29T23:20:07.473Z,12.67
2018-09-29T23:22:36.200Z,13.40
2018-09-29T23:25:04.918Z,19.07
2018-09-29T23:27:33.765Z,15.27
2018-09-29T23:30:02.706Z,14.40
2018-09-29T23:32:31.616Z,17.47
2018-09-29T23:35:00.261Z,19.07
2018-09-29T23:37:29.006Z,16.90
2018-09-29T23:39:57.947Z,14.10
2018-09-29T23:42:26.818Z,14.03
2018-09-29T23:44:55.508Z,15.70
2018-09-29T23:47:24.058Z,16.07
2018-09-29T23:49:52.766Z,11.97
2018-09-29T23:52:21.622Z,12.93
2018-09-29T23:54:50.271Z,13.60
2018-09-29T23:57:19.052Z,13.17
2018-09-29T23:59:47.662Z,17.93
